Time;durP1;ratioP1;P1;durP2;ratioP2;P2;SDS_P1;SDS_P2;PMS_P1;PMS_P2;Temp;Humidity;BMP_temperature;BMP_pressure;BME280_temperature;BME280_humidity;BME280_pressure;Samples;Min_cycle;Max_cycle;Signal;HPM_P1;HPM_P2
2023/05/01 00:00:03;;;;;;;5.07;3.50;;;;;;;18.78;62.52;100220.69;5078498;28;20552;-65
2023/05/01 00:02:29;;;;;;;4.00;2.70;;;;;;;18.79;62.29;100219.47;5075915;28;20541;-66
2023/05/01 00:04:55;;;;;;;3.90;3.13;;;;;;;18.79;62.46;100215.75;5060047;28;20463;-65
2023/05/01 00:07:21;;;;;;;4.33;3.37;;;;;;;18.77;62.19;100213.28;5076595;28;20207;-65
2023/05/01 00:09:46;;;;;;;3.23;2.67;;;;;;;18.77;62.27;100216.13;5075940;28;20313;-66
2023/05/01 00:12:12;;;;;;;4.33;3.00;;;;;;;18.79;62.34;100204.31;5057857;28;21144;-66
2023/05/01 00:14:37;;;;;;;3.50;2.70;;;;;;;18.79;62.14;100205.16;5077809;28;20186;-66
2023/05/01 00:17:03;;;;;;;4.10;3.30;;;;;;;18.81;62.36;100204.78;5077360;28;20171;-65
2023/05/01 00:19:28;;;;;;;4.47;3.30;;;;;;;18.80;62.04;100203.94;5076659;28;20836;-66
2023/05/01 00:21:53;;;;;;;3.87;2.90;;;;;;;18.81;62.16;100199.06;5094259;28;20189;-65
2023/05/01 00:24:19;;;;;;;4.00;3.03;;;;;;;18.81;62.26;100197.00;5095391;28;20167;-66
2023/05/01 00:26:44;;;;;;;3.77;2.73;;;;;;;18.79;62.41;100196.59;5082837;28;20211;-66
2023/05/01 00:29:10;;;;;;;4.20;2.90;;;;;;;18.79;62.36;100185.13;5074414;28;20178;-66
2023/05/01 00:31:36;;;;;;;4.50;3.27;;;;;;;18.79;62.40;100190.03;5075570;28;20198;-66
2023/05/01 00:34:01;;;;;;;3.63;2.70;;;;;;;18.80;62.59;100188.81;5075081;28;20248;-66
2023/05/01 00:36:27;;;;;;;4.40;3.30;;;;;;;18.80;62.27;100188.81;5075311;28;20198;-66
2023/05/01 00:38:52;;;;;;;4.63;3.17;;;;;;;18.80;62.63;100183.91;5075038;28;20183;-66
2023/05/01 00:41:17;;;;;;;4.17;2.90;;;;;;;18.80;62.47;100178.19;5079290;28;20189;-66
2023/05/01 00:43:43;;;;;;;3.53;3.00;;;;;;;18.81;62.38;100176.19;5060519;28;20187;-66
2023/05/01 00:46:08;;;;;;;4.07;2.77;;;;;;;18.82;62.48;100178.63;5074017;28;20249;-66
2023/05/01 00:48:34;;;;;;;4.17;2.70;;;;;;;18.80;62.46;100169.63;5077510;28;20186;-66
2023/05/01 00:50:59;;;;;;;2.93;2.50;;;;;;;18.80;62.30;100175.34;5075124;28;20183;-66
2023/05/01 00:53:25;;;;;;;3.87;3.03;;;;;;;18.78;62.50;100172.06;5057608;28;20163;-66
2023/05/01 00:55:50;;;;;;;3.83;3.17;;;;;;;18.79;62.75;100176.56;5040807;28;20170;-66
2023/05/01 00:58:16;;;;;;;4.50;2.57;;;;;;;18.77;62.81;100163.84;5061994;28;20190;-66
2023/05/01 01:00:42;;;;;;;5.80;2.87;;;;;;;18.75;62.50;100169.94;5075863;28;20164;-65
2023/05/01 01:03:07;;;;;;;4.57;3.60;;;;;;;18.75;62.77;100169.13;5061884;28;20187;-65
2023/05/01 01:05:36;;;;;;;4.10;2.83;;;;;;;18.74;62.72;100162.59;5077680;28;20613;-65
2023/05/01 01:08:34;;;;;;;3.40;3.00;;;;;;;18.73;62.75;100154.38;5042628;28;20229;-66
2023/05/01 01:11:10;;;;;;;3.60;2.80;;;;;;;18.73;62.54;100152.38;5074368;28;20479;-66
2023/05/01 01:13:45;;;;;;;3.33;2.60;;;;;;;18.71;62.58;100145.38;5057670;28;20460;-66
2023/05/01 01:16:31;;;;;;;3.60;2.57;;;;;;;18.72;62.86;100147.03;5042942;28;21076;-65
2023/05/01 01:19:19;;;;;;;4.57;2.77;;;;;;;18.70;62.38;100138.81;5071547;28;20413;-65
2023/05/01 01:21:46;;;;;;;3.63;2.50;;;;;;;18.71;62.81;100134.75;5043502;28;20870;-65
2023/05/01 01:24:44;;;;;;;3.93;2.77;;;;;;;18.71;62.50;100129.03;5042005;28;20456;-66
2023/05/01 01:27:25;;;;;;;3.50;3.00;;;;;;;18.71;62.72;100129.03;5046195;28;20554;-66
2023/05/01 01:30:30;;;;;;;4.97;2.60;;;;;;;18.70;62.72;100127.38;5058155;28;20466;-66
2023/05/01 01:33:08;;;;;;;3.30;2.70;;;;;;;18.70;62.45;100130.25;5066571;28;20802;-66
2023/05/01 01:35:33;;;;;;;4.40;3.03;;;;;;;18.71;62.50;100125.38;5058356;28;20441;-66
2023/05/01 01:38:00;;;;;;;3.53;3.00;;;;;;;18.70;62.60;100127.38;5046088;28;20444;-66
2023/05/01 01:40:31;;;;;;;4.13;2.50;;;;;;;18.69;62.40;100125.75;5078754;28;20392;-66
2023/05/01 01:43:05;;;;;;;4.03;3.20;;;;;;;18.70;62.57;100132.28;5051558;28;20428;-66
2023/05/01 01:45:42;;;;;;;3.50;2.53;;;;;;;18.70;62.52;100132.28;5057275;28;20470;-66
2023/05/01 01:48:14;;;;;;;3.57;3.00;;;;;;;18.69;63.06;100131.47;5061620;28;20412;-66
2023/05/01 01:50:40;;;;;;;3.53;2.70;;;;;;;18.70;63.39;100127.38;5065414;28;20440;-66
2023/05/01 01:53:06;;;;;;;3.50;2.50;;;;;;;18.68;62.82;100129.81;5079108;28;20482;-66
2023/05/01 01:55:32;;;;;;;3.50;2.50;;;;;;;18.70;62.85;100132.28;5041795;28;20179;-66
2023/05/01 01:57:57;;;;;;;3.57;2.70;;;;;;;18.69;63.15;100122.06;5078368;28;20187;-66
2023/05/01 02:00:22;;;;;;;7.03;3.13;;;;;;;18.71;62.60;100123.31;5077740;28;20167;-66
2023/05/01 02:02:48;;;;;;;4.00;2.80;;;;;;;18.70;62.62;100127.38;5091510;28;20190;-66
2023/05/01 02:05:14;;;;;;;3.43;2.80;;;;;;;18.71;62.77;100128.22;5075152;28;20622;-66
2023/05/01 02:07:40;;;;;;;4.43;2.80;;;;;;;18.73;62.70;100122.94;5077782;28;20218;-66
2023/05/01 02:10:06;;;;;;;4.30;3.30;;;;;;;18.73;62.49;100120.06;5057768;28;20406;-66
2023/05/01 02:12:32;;;;;;;3.00;2.37;;;;;;;18.72;62.43;100119.25;5059117;28;20546;-66
2023/05/01 02:14:57;;;;;;;3.90;3.40;;;;;;;18.72;62.51;100113.53;5076305;28;20409;-66
2023/05/01 02:17:23;;;;;;;2.93;2.43;;;;;;;18.73;62.54;100112.34;5043083;28;20194;-66
2023/05/01 02:19:48;;;;;;;3.30;2.43;;;;;;;18.74;62.52;100116.84;5056825;28;20586;-65
2023/05/01 02:22:14;;;;;;;3.43;2.60;;;;;;;18.74;62.55;100111.13;5062919;28;20213;-66
2023/05/01 02:24:40;;;;;;;5.07;2.63;;;;;;;18.74;62.38;100116.84;5095945;28;20159;-66
2023/05/01 02:27:27;;;;;;;3.27;2.43;;;;;;;18.74;62.50;100110.28;5060476;28;20425;-66
2023/05/01 02:29:53;;;;;;;5.97;3.23;;;;;;;18.75;63.07;100118.47;5070157;28;20175;-66
2023/05/01 02:32:18;;;;;;;4.30;2.50;;;;;;;18.75;62.58;100109.06;5073733;28;20705;-66
2023/05/01 02:34:44;;;;;;;3.00;2.50;;;;;;;18.74;62.41;100110.28;5073202;28;20628;-66
2023/05/01 02:37:10;;;;;;;3.37;2.80;;;;;;;18.74;62.10;100099.69;5074441;28;20615;-66
2023/05/01 02:39:35;;;;;;;2.90;2.47;;;;;;;18.73;62.68;100100.91;5060959;28;20182;-66
2023/05/01 02:42:02;;;;;;;3.70;2.80;;;;;;;18.77;62.82;100095.22;5092758;28;20171;-66
2023/05/01 02:44:29;;;;;;;3.23;2.47;;;;;;;18.79;63.15;100093.63;5057554;28;20193;-66
2023/05/01 02:46:55;;;;;;;3.33;2.60;;;;;;;18.77;62.59;100092.34;5076088;28;20464;-66
2023/05/01 02:49:20;;;;;;;3.00;2.30;;;;;;;18.75;62.63;100089.88;5077969;28;20470;-66
2023/05/01 02:51:46;;;;;;;3.33;2.67;;;;;;;18.74;62.63;100088.25;5074645;28;20198;-66
2023/05/01 02:54:11;;;;;;;4.83;2.60;;;;;;;18.73;62.80;100088.63;5078266;28;20182;-66
2023/05/01 02:56:37;;;;;;;4.07;2.80;;;;;;;18.71;62.70;100083.28;5055887;28;20183;-66
2023/05/01 02:59:03;;;;;;;3.87;3.00;;;;;;;18.72;62.56;100084.13;5056416;28;20241;-66
2023/05/01 03:01:28;;;;;;;2.97;2.50;;;;;;;18.71;62.52;100082.47;5085946;28;20186;-66
2023/05/01 03:03:54;;;;;;;3.53;2.80;;;;;;;18.70;63.05;100080.81;5082089;28;20236;-66
2023/05/01 03:06:19;;;;;;;3.60;2.50;;;;;;;18.69;62.70;100085.72;5077652;28;20210;-66
2023/05/01 03:08:46;;;;;;;4.63;2.87;;;;;;;18.69;62.62;100080.00;5064009;28;20210;-66
2023/05/01 03:11:11;;;;;;;3.90;2.83;;;;;;;18.69;62.56;100080.00;5058619;28;20160;-65
2023/05/01 03:13:37;;;;;;;2.90;2.33;;;;;;;18.68;62.86;100078.34;5058386;28;20484;-66
2023/05/01 03:16:03;;;;;;;3.23;2.63;;;;;;;18.69;62.60;100082.84;5075518;28;20252;-66
2023/05/01 03:18:28;;;;;;;3.30;2.60;;;;;;;18.67;63.12;100082.41;5079587;28;20167;-66
2023/05/01 03:20:55;;;;;;;3.43;2.20;;;;;;;18.67;62.83;100082.41;5082428;28;20443;-66
2023/05/01 03:23:22;;;;;;;3.57;2.77;;;;;;;18.66;63.04;100077.09;5093320;28;20174;-66
2023/05/01 03:25:47;;;;;;;2.90;2.30;;;;;;;18.67;62.84;100078.72;5098173;28;20538;-66
2023/05/01 03:28:13;;;;;;;3.10;2.47;;;;;;;18.66;62.62;100075.03;5080596;28;20451;-66
2023/05/01 03:30:38;;;;;;;4.03;2.90;;;;;;;18.67;62.72;100081.59;5087436;28;20201;-66
2023/05/01 03:33:04;;;;;;;4.43;2.90;;;;;;;18.67;62.73;100082.41;5059735;28;20187;-66
2023/05/01 03:35:29;;;;;;;3.50;2.87;;;;;;;18.67;62.74;100076.69;5078288;28;20187;-66
2023/05/01 03:37:55;;;;;;;3.80;2.63;;;;;;;18.66;62.66;100075.03;5096491;28;20178;-66
2023/05/01 03:40:20;;;;;;;3.33;2.50;;;;;;;18.66;62.85;100072.19;5079390;28;20166;-65
2023/05/01 03:42:46;;;;;;;3.73;2.47;;;;;;;18.65;62.74;100061.97;5093637;28;20185;-66
2023/05/01 03:45:11;;;;;;;3.27;2.53;;;;;;;18.64;62.97;100071.75;5056865;28;20260;-66
2023/05/01 03:47:37;;;;;;;3.03;2.53;;;;;;;18.63;62.90;100069.28;5059500;28;20217;-66
2023/05/01 03:50:02;;;;;;;3.63;2.27;;;;;;;18.64;63.21;100073.78;5077865;28;20171;-66
2023/05/01 03:52:28;;;;;;;3.23;2.57;;;;;;;18.66;63.43;100075.03;5093744;28;20178;-66
2023/05/01 03:54:53;;;;;;;3.20;2.40;;;;;;;18.67;62.88;100073.81;5097985;28;20166;-66
2023/05/01 03:57:25;;;;;;;3.30;2.70;;;;;;;18.70;62.77;100069.38;5090458;28;20688;-65
2023/05/01 03:59:51;;;;;;;3.03;2.50;;;;;;;18.69;62.63;100070.56;5078443;28;20198;-66
2023/05/01 04:02:17;;;;;;;3.67;2.70;;;;;;;18.69;62.61;100071.41;5061827;28;20410;-66
2023/05/01 04:04:42;;;;;;;3.20;2.33;;;;;;;18.69;62.50;100068.56;5076588;28;20209;-65
2023/05/01 04:07:08;;;;;;;3.67;2.90;;;;;;;18.71;62.73;100073.91;5070044;28;20214;-65
2023/05/01 04:09:33;;;;;;;5.47;2.97;;;;;;;18.71;62.65;100071.84;5078782;28;20181;-65
2023/05/01 04:11:59;;;;;;;3.47;2.60;;;;;;;18.71;62.64;100068.97;5067498;28;20182;-65
2023/05/01 04:14:24;;;;;;;2.70;2.30;;;;;;;18.72;62.48;100079.19;5083096;28;20170;-66
2023/05/01 04:16:50;;;;;;;3.00;2.40;;;;;;;18.72;62.49;100078.41;5076818;28;20197;-65
2023/05/01 04:19:15;;;;;;;3.30;2.70;;;;;;;18.73;62.71;100080.03;5089666;28;20208;-65
2023/05/01 04:21:41;;;;;;;3.40;2.60;;;;;;;18.71;62.67;100077.56;5095471;28;20178;-65
2023/05/01 04:24:06;;;;;;;3.00;2.50;;;;;;;18.70;62.71;100087.34;5088983;28;20183;-65
2023/05/01 04:26:32;;;;;;;3.67;2.40;;;;;;;18.71;62.68;100083.28;5056977;28;20218;-65
2023/05/01 04:28:59;;;;;;;3.23;2.30;;;;;;;18.71;62.88;100088.19;5075888;28;20241;-65
2023/05/01 04:31:24;;;;;;;3.50;2.60;;;;;;;18.72;62.77;100084.13;5077997;28;20265;-65
2023/05/01 04:33:50;;;;;;;3.87;2.80;;;;;;;18.73;62.47;100085.75;5059081;28;20928;-65
2023/05/01 04:36:16;;;;;;;3.10;2.40;;;;;;;18.71;62.85;100083.28;5082669;28;20645;-65
2023/05/01 04:38:41;;;;;;;3.50;2.70;;;;;;;18.75;62.80;100089.88;5097577;28;20170;-65
2023/05/01 04:41:07;;;;;;;2.80;2.20;;;;;;;18.75;62.94;100094.75;5097701;28;20155;-66
2023/05/01 04:43:33;;;;;;;3.20;2.63;;;;;;;18.72;63.02;100092.69;5060790;28;20183;-65
2023/05/01 04:45:58;;;;;;;3.33;2.43;;;;;;;18.70;62.57;100087.34;5059068;28;20199;-66
2023/05/01 04:48:23;;;;;;;3.80;3.20;;;;;;;18.70;62.71;100097.97;5079498;28;20199;-65
2023/05/01 04:50:49;;;;;;;2.83;2.40;;;;;;;18.68;62.84;100092.66;5077588;28;20167;-65
2023/05/01 04:53:14;;;;;;;3.47;2.83;;;;;;;18.68;63.01;100094.66;5077008;28;20175;-65
2023/05/01 04:55:40;;;;;;;4.60;2.40;;;;;;;18.67;62.85;100099.56;5096065;28;20178;-66
2023/05/01 04:58:05;;;;;;;3.80;2.60;;;;;;;18.67;62.95;100104.47;5098690;28;20178;-65
2023/05/01 05:00:31;;;;;;;4.20;2.80;;;;;;;18.66;63.07;100102.81;5075712;28;20178;-66
2023/05/01 05:02:56;;;;;;;3.10;2.50;;;;;;;18.67;63.05;100108.13;5091900;28;20183;-66
2023/05/01 05:05:22;;;;;;;3.57;2.80;;;;;;;18.67;62.87;100113.03;5059876;28;20198;-65
2023/05/01 05:07:47;;;;;;;3.30;2.60;;;;;;;18.65;62.83;100107.72;5076988;28;20191;-66
2023/05/01 05:10:13;;;;;;;3.10;2.40;;;;;;;18.66;62.85;100109.34;5061675;28;20190;-65
2023/05/01 05:12:38;;;;;;;3.23;2.50;;;;;;;18.66;62.74;100106.50;5061449;28;20281;-65
2023/05/01 05:15:04;;;;;;;2.73;2.37;;;;;;;18.65;62.93;100110.56;5067863;28;20182;-65
2023/05/01 05:17:30;;;;;;;3.40;2.77;;;;;;;18.64;62.85;100117.50;5078525;28;20215;-65
2023/05/01 05:19:55;;;;;;;2.77;2.37;;;;;;;18.65;62.81;100119.16;5069510;28;20479;-66
2023/05/01 05:22:21;;;;;;;3.47;2.47;;;;;;;18.65;62.74;100118.31;5096057;28;20362;-66
2023/05/01 05:24:46;;;;;;;3.50;2.67;;;;;;;18.65;62.79;100127.72;5096567;28;20182;-65
2023/05/01 05:27:12;;;;;;;3.80;2.63;;;;;;;18.65;62.79;100124.03;5074373;28;20564;-66
2023/05/01 05:29:37;;;;;;;2.67;2.30;;;;;;;18.64;62.98;100126.09;5083000;28;20571;-66
2023/05/01 05:32:03;;;;;;;5.30;2.70;;;;;;;18.63;62.78;100118.72;5061062;28;20543;-66
2023/05/01 05:34:28;;;;;;;3.00;2.47;;;;;;;18.64;62.59;100122.38;5058308;28;20536;-66
2023/05/01 05:36:54;;;;;;;2.87;2.20;;;;;;;18.64;62.97;100126.09;5076638;28;20175;-65
2023/05/01 05:39:21;;;;;;;3.37;2.67;;;;;;;18.62;63.19;100122.75;5060872;28;20960;-65
2023/05/01 05:41:48;;;;;;;2.93;2.23;;;;;;;18.65;63.04;100127.72;5057894;28;20167;-66
2023/05/01 05:44:13;;;;;;;3.00;2.50;;;;;;;18.66;63.04;100129.38;5075870;28;20449;-66
2023/05/01 05:46:39;;;;;;;3.20;2.23;;;;;;;18.66;62.94;100125.69;5076756;28;20460;-65
2023/05/01 05:49:05;;;;;;;2.90;2.43;;;;;;;18.65;63.17;100124.88;5094151;28;20174;-66
2023/05/01 05:51:30;;;;;;;3.10;2.40;;;;;;;18.68;62.79;100126.97;5073799;28;20186;-65
2023/05/01 05:53:56;;;;;;;2.80;2.30;;;;;;;18.68;62.75;100131.84;5083261;28;20186;-65
2023/05/01 05:56:22;;;;;;;2.97;2.20;;;;;;;18.69;62.76;100128.59;5095261;28;20155;-65
2023/05/01 05:58:47;;;;;;;5.57;2.70;;;;;;;18.69;62.72;100134.31;5092065;28;20175;-66
2023/05/01 06:01:13;;;;;;;3.77;2.50;;;;;;;18.71;62.64;100131.91;5096161;28;20174;-65
2023/05/01 06:03:39;;;;;;;2.83;2.30;;;;;;;18.71;62.52;100131.09;5084806;28;20409;-66
2023/05/01 06:06:05;;;;;;;3.03;2.23;;;;;;;18.71;62.69;100136.81;5079718;28;20453;-65
2023/05/01 06:08:30;;;;;;;3.60;2.33;;;;;;;18.71;62.74;100137.63;5084158;28;20207;-65
2023/05/01 06:10:57;;;;;;;3.10;2.67;;;;;;;18.72;62.58;100132.72;5097505;28;20186;-65
2023/05/01 06:13:23;;;;;;;3.27;2.27;;;;;;;18.71;62.60;100129.03;5079590;28;20279;-66
2023/05/01 06:15:48;;;;;;;2.90;2.43;;;;;;;18.70;62.69;100133.09;5073044;28;20430;-66
2023/05/01 06:18:14;;;;;;;3.50;2.37;;;;;;;18.69;62.85;100131.47;5072556;28;20191;-66
2023/05/01 06:20:39;;;;;;;3.33;2.43;;;;;;;18.72;62.70;100130.69;5060820;28;20179;-66
2023/05/01 06:23:07;;;;;;;3.20;2.70;;;;;;;18.74;62.75;100133.16;5080562;28;20190;-65
2023/05/01 06:25:32;;;;;;;2.50;2.20;;;;;;;18.74;62.77;100130.28;5094764;28;20231;-66
2023/05/01 06:27:58;;;;;;;3.50;2.87;;;;;;;18.74;62.85;100128.28;5100489;28;20413;-65
2023/05/01 06:30:23;;;;;;;2.70;2.20;;;;;;;18.72;63.04;100130.69;5075103;28;20187;-65
2023/05/01 06:32:49;;;;;;;3.60;2.40;;;;;;;18.72;62.93;100124.16;5055626;28;20896;-66
2023/05/01 06:35:14;;;;;;;3.03;2.43;;;;;;;18.71;62.97;100134.75;5073052;28;20887;-66
2023/05/01 06:37:40;;;;;;;3.10;2.40;;;;;;;18.71;62.78;100140.47;5074622;28;20183;-65
2023/05/01 06:40:07;;;;;;;2.77;2.03;;;;;;;18.70;62.62;100138.81;5070465;28;20163;-65
2023/05/01 06:42:32;;;;;;;2.90;2.40;;;;;;;18.69;62.74;100145.75;5070487;28;20567;-65
2023/05/01 06:44:58;;;;;;;3.10;2.30;;;;;;;18.69;62.75;100142.06;5071196;28;20429;-66
2023/05/01 06:47:23;;;;;;;3.30;2.37;;;;;;;18.69;62.84;100148.63;5050280;28;20190;-65
2023/05/01 06:49:49;;;;;;;2.40;2.00;;;;;;;18.68;62.90;100157.59;5070599;28;20626;-65
2023/05/01 06:52:14;;;;;;;3.30;2.60;;;;;;;18.67;62.79;100148.16;5075538;28;20191;-65
2023/05/01 06:54:40;;;;;;;3.23;2.53;;;;;;;18.68;62.73;100157.59;5091047;28;20610;-65
2023/05/01 06:57:06;;;;;;;3.37;2.57;;;;;;;18.67;63.04;100168.19;5090230;28;20166;-65
2023/05/01 06:59:31;;;;;;;2.80;2.20;;;;;;;18.67;62.84;100153.09;5037335;28;20524;-65
2023/05/01 07:01:56;;;;;;;3.10;2.40;;;;;;;18.67;62.77;100156.75;5051764;28;20175;-65
2023/05/01 07:04:22;;;;;;;2.83;2.10;;;;;;;18.68;62.69;100158.41;5076053;28;20202;-65
2023/05/01 07:06:48;;;;;;;2.93;2.50;;;;;;;18.68;62.80;100166.16;5090077;28;20221;-65
2023/05/01 07:09:14;;;;;;;3.53;2.23;;;;;;;18.68;62.78;100164.13;5090065;28;20198;-65
2023/05/01 07:11:41;;;;;;;3.07;2.67;;;;;;;18.67;63.00;100168.19;5072146;28;20185;-65
2023/05/01 07:14:06;;;;;;;3.40;2.10;;;;;;;18.67;62.72;100161.66;5085409;28;20236;-65
2023/05/01 07:16:32;;;;;;;3.90;2.20;;;;;;;18.67;62.66;100173.09;5090661;28;20416;-65
2023/05/01 07:18:57;;;;;;;3.50;2.70;;;;;;;18.66;62.81;100163.69;5092450;28;20178;-65
2023/05/01 07:21:23;;;;;;;2.90;2.23;;;;;;;18.67;62.64;100164.53;5071765;28;20175;-65
2023/05/01 07:23:48;;;;;;;3.03;2.30;;;;;;;18.68;62.61;100169.03;5086771;28;20646;-65
2023/05/01 07:26:14;;;;;;;3.00;2.17;;;;;;;18.68;62.74;100169.03;5062649;28;21007;-65
2023/05/01 07:28:40;;;;;;;2.63;2.07;;;;;;;18.67;62.75;100168.19;5074359;28;20635;-65
2023/05/01 07:31:08;;;;;;;2.57;2.10;;;;;;;18.65;63.22;100162.03;5052819;28;20175;-66
2023/05/01 07:33:33;;;;;;;3.67;2.40;;;;;;;18.66;63.09;100166.53;5069587;28;20983;-65
2023/05/01 07:35:59;;;;;;;3.23;2.23;;;;;;;18.67;62.95;100159.59;5037587;28;20428;-65
2023/05/01 07:38:25;;;;;;;3.43;2.27;;;;;;;18.68;62.87;100157.59;5070900;28;20167;-65
2023/05/01 07:40:53;;;;;;;3.40;2.23;;;;;;;18.70;62.71;100161.72;5070179;28;20191;-65
2023/05/01 07:43:18;;;;;;;2.27;1.90;;;;;;;18.72;62.59;100169.91;5068004;28;20474;-65
2023/05/01 07:45:54;;;;;;;3.00;2.40;;;;;;;18.71;62.77;100169.06;5070608;28;20504;-65
2023/05/01 07:48:19;;;;;;;2.70;2.37;;;;;;;18.73;62.38;100163.81;5068379;28;20167;-65
2023/05/01 07:50:45;;;;;;;2.90;2.20;;;;;;;18.75;62.50;100169.13;5069690;28;20413;-65
2023/05/01 07:53:10;;;;;;;2.70;2.13;;;;;;;18.74;62.43;100159.72;5071706;28;20586;-65
2023/05/01 07:55:37;;;;;;;3.00;2.27;;;;;;;18.74;62.54;100151.16;5070063;28;20175;-65
2023/05/01 07:58:02;;;;;;;2.97;2.10;;;;;;;18.74;62.66;100159.72;5074100;28;20262;-65
2023/05/01 08:00:28;;;;;;;3.13;2.80;;;;;;;18.74;62.66;100162.59;5055504;28;20442;-65
2023/05/01 08:02:53;;;;;;;2.63;2.20;;;;;;;18.73;62.64;100152.38;5087019;28;20183;-65
2023/05/01 08:05:19;;;;;;;3.90;2.40;;;;;;;18.73;62.65;100160.94;5076233;28;20199;-65
2023/05/01 08:07:44;;;;;;;3.03;2.37;;;;;;;18.72;62.73;100165.00;5083619;28;20229;-65
2023/05/01 08:10:10;;;;;;;3.07;2.23;;;;;;;18.74;62.75;100165.44;5076336;28;20161;-65
2023/05/01 08:12:35;;;;;;;2.97;2.10;;;;;;;18.72;62.71;100159.28;5091513;28;20234;-66
2023/05/01 08:15:00;;;;;;;3.30;2.23;;;;;;;18.74;62.80;100158.91;5073720;28;20844;-65
2023/05/01 08:17:26;;;;;;;2.70;2.07;;;;;;;18.74;62.83;100153.19;5073495;28;20731;-65
2023/05/01 08:19:55;;;;;;;3.10;2.23;;;;;;;18.74;62.93;100156.88;5084573;28;20214;-65
2023/05/01 08:22:22;;;;;;;2.70;2.13;;;;;;;18.77;62.89;100155.28;5084949;28;20229;-65
2023/05/01 08:24:49;;;;;;;3.00;2.57;;;;;;;18.75;62.93;100161.38;5074884;28;20475;-65
2023/05/01 08:27:14;;;;;;;2.80;2.30;;;;;;;18.76;62.67;100165.06;5093259;28;20455;-65
2023/05/01 08:29:40;;;;;;;2.07;1.67;;;;;;;18.78;62.76;100159.78;5093022;28;20884;-65
2023/05/01 08:32:05;;;;;;;2.53;2.20;;;;;;;18.75;62.73;100155.66;5069731;28;20740;-65
2023/05/01 08:34:30;;;;;;;2.80;2.23;;;;;;;18.76;62.61;100160.16;5055293;28;20198;-65
2023/05/01 08:36:58;;;;;;;2.53;2.27;;;;;;;18.74;62.89;100159.72;5054363;28;20183;-65
2023/05/01 08:39:23;;;;;;;2.97;2.03;;;;;;;18.73;62.88;100166.66;5054144;28;20271;-66
2023/05/01 08:41:49;;;;;;;2.83;2.30;;;;;;;18.72;62.88;100165.00;5070242;28;20515;-65
2023/05/01 08:44:15;;;;;;;2.80;2.10;;;;;;;18.70;63.00;100160.88;5072903;28;20175;-65
2023/05/01 08:46:59;;;;;;;2.80;2.33;;;;;;;18.70;62.75;100158.84;5069640;28;20212;-65
2023/05/01 08:49:25;;;;;;;2.90;1.97;;;;;;;18.72;62.67;100162.13;5036527;28;20908;-65
2023/05/01 08:51:51;;;;;;;2.97;2.17;;;;;;;18.71;63.12;100157.63;5042368;28;20441;-65
2023/05/01 08:54:17;;;;;;;2.50;1.83;;;;;;;18.72;62.68;100158.47;5078428;28;20237;-65
2023/05/01 08:56:43;;;;;;;2.60;2.10;;;;;;;18.71;62.92;100153.97;5038767;28;20421;-65
2023/05/01 08:59:09;;;;;;;3.30;2.13;;;;;;;18.74;62.41;100150.31;5085988;28;20194;-65
2023/05/01 09:01:34;;;;;;;3.33;2.40;;;;;;;18.73;62.49;100146.66;5092370;28;21082;-65
2023/05/01 09:04:03;;;;;;;2.90;2.30;;;;;;;18.74;62.46;100156.03;5062049;28;20490;-65
2023/05/01 09:06:31;;;;;;;2.90;2.27;;;;;;;18.73;62.68;100149.50;5046347;28;20617;-65
2023/05/01 09:08:57;;;;;;;3.60;2.27;;;;;;;18.75;62.73;100151.97;5071137;28;20835;-65
2023/05/01 09:11:22;;;;;;;2.80;2.20;;;;;;;18.78;62.58;100159.78;5052841;28;20401;-65
2023/05/01 09:13:47;;;;;;;2.93;2.27;;;;;;;18.76;62.72;100154.44;5069677;28;20280;-65
2023/05/01 09:16:13;;;;;;;3.10;2.47;;;;;;;18.78;62.48;100151.19;5071154;28;20754;-65
2023/05/01 09:18:40;;;;;;;5.03;2.37;;;;;;;18.77;62.54;100156.09;5050986;28;20171;-65
2023/05/01 09:21:05;;;;;;;2.57;1.70;;;;;;;18.76;62.74;100159.34;5069984;28;20173;-66
2023/05/01 09:23:31;;;;;;;2.70;1.90;;;;;;;18.76;62.80;100156.50;5069615;28;20406;-65
2023/05/01 09:25:57;;;;;;;2.90;2.23;;;;;;;18.74;62.93;100158.91;5053788;28;20344;-65
2023/05/01 09:28:41;;;;;;;2.60;2.07;;;;;;;18.75;62.79;100160.53;5050860;28;20225;-65
2023/05/01 09:31:36;;;;;;;2.73;2.13;;;;;;;18.75;63.03;100160.53;5074245;28;20197;-65
2023/05/01 09:34:02;;;;;;;2.60;2.10;;;;;;;18.73;62.96;100160.94;5030558;28;20449;-65
2023/05/01 09:36:29;;;;;;;2.20;1.90;;;;;;;18.71;63.16;100151.91;5052112;28;20406;-65
2023/05/01 09:39:01;;;;;;;3.27;2.50;;;;;;;18.74;62.85;100154.00;5080009;28;20447;-65
2023/05/01 09:41:27;;;;;;;3.17;2.43;;;;;;;18.77;63.02;100161.81;5055986;28;20424;-65
2023/05/01 09:43:53;;;;;;;2.93;2.00;;;;;;;18.76;62.84;100154.44;5056999;28;21219;-65
2023/05/01 09:46:19;;;;;;;2.80;2.17;;;;;;;18.77;62.79;100150.34;5055001;28;20218;-65
2023/05/01 09:48:58;;;;;;;3.30;2.23;;;;;;;18.77;62.95;100144.63;5053939;28;20448;-66
2023/05/01 09:51:27;;;;;;;2.93;2.23;;;;;;;18.78;62.93;100146.31;5056743;28;20198;-66
2023/05/01 09:53:57;;;;;;;2.90;2.20;;;;;;;18.78;62.78;100134.88;5071386;28;20421;-66
2023/05/01 09:56:23;;;;;;;2.30;1.83;;;;;;;18.79;62.67;100127.94;5052957;28;20451;-66
2023/05/01 09:58:52;;;;;;;2.80;2.43;;;;;;;18.78;62.98;100131.19;5056795;28;20452;-66
2023/05/01 10:01:18;;;;;;;3.03;2.10;;;;;;;18.79;62.92;100130.81;5074308;28;20612;-65
2023/05/01 10:03:44;;;;;;;2.93;1.83;;;;;;;18.79;62.79;100129.97;5055011;28;20594;-65
2023/05/01 10:06:10;;;;;;;3.17;2.00;;;;;;;18.80;62.95;100128.75;5072608;28;20518;-66
2023/05/01 10:08:48;;;;;;;3.17;2.37;;;;;;;18.79;62.75;100130.81;5057050;28;20464;-65
2023/05/01 10:11:14;;;;;;;2.40;1.80;;;;;;;18.80;62.80;100123.84;5053217;28;20190;-65
2023/05/01 10:13:40;;;;;;;2.50;2.20;;;;;;;18.79;62.72;100130.81;5051960;28;20505;-65
2023/05/01 10:16:07;;;;;;;2.90;2.30;;;;;;;18.79;62.86;100125.06;5089708;28;20605;-65
2023/05/01 10:18:36;;;;;;;2.90;2.20;;;;;;;18.79;62.54;100130.81;5086911;28;20300;-64
2023/05/01 10:21:02;;;;;;;2.90;2.00;;;;;;;18.79;62.72;100130.81;5073658;28;20424;-65
2023/05/01 10:23:28;;;;;;;2.40;2.07;;;;;;;18.80;62.76;100135.31;5074965;28;20569;-65
2023/05/01 10:25:53;;;;;;;2.50;1.80;;;;;;;18.80;62.74;100132.44;5077644;28;20914;-65
2023/05/01 10:28:24;;;;;;;2.67;2.23;;;;;;;18.81;62.56;100127.56;5056092;28;20178;-65
2023/05/01 10:30:49;;;;;;;2.60;2.13;;;;;;;18.82;62.70;100130.00;5094807;28;20223;-65
2023/05/01 10:33:15;;;;;;;3.10;2.03;;;;;;;18.85;62.62;100129.25;5090915;28;20448;-65
2023/05/01 10:35:41;;;;;;;2.90;2.10;;;;;;;18.88;62.19;100137.06;5093988;28;20165;-65
2023/05/01 10:38:09;;;;;;;2.27;1.83;;;;;;;18.89;62.43;100129.28;5060255;28;20170;-66
2023/05/01 10:40:37;;;;;;;2.40;1.80;;;;;;;18.84;62.70;100127.59;5058635;28;21176;-66
2023/05/01 10:43:13;;;;;;;2.30;1.73;;;;;;;18.84;62.97;100123.91;5084230;28;20432;-66
2023/05/01 10:45:38;;;;;;;2.43;1.63;;;;;;;18.85;63.01;100134.13;5093606;28;20451;-64
2023/05/01 10:48:04;;;;;;;2.37;1.77;;;;;;;18.84;62.91;100113.31;5094222;28;20447;-64
2023/05/01 10:50:29;;;;;;;2.40;1.80;;;;;;;18.83;62.77;100113.69;5094340;28;20242;-64
2023/05/01 10:53:13;;;;;;;3.30;2.10;;;;;;;18.82;62.92;100112.84;5077368;28;20229;-64
2023/05/01 10:55:42;;;;;;;2.77;2.20;;;;;;;18.86;62.99;100110.88;5075171;28;20183;-64
2023/05/01 10:58:07;;;;;;;3.10;2.43;;;;;;;18.84;63.33;100106.75;5077115;28;20427;-64
2023/05/01 11:00:33;;;;;;;2.47;1.87;;;;;;;18.84;63.27;100106.75;5078514;28;20436;-64
2023/05/01 11:03:20;;;;;;;2.70;1.97;;;;;;;18.83;63.28;100100.22;5074406;28;20594;-64
2023/05/01 11:06:06;;;;;;;2.10;1.60;;;;;;;18.84;63.24;100099.00;5073491;28;20191;-65
2023/05/01 11:08:36;;;;;;;2.13;1.73;;;;;;;18.86;62.79;100101.47;5074837;28;20528;-64
2023/05/01 11:11:22;;;;;;;2.63;2.03;;;;;;;18.85;62.99;100099.81;5076548;28;20436;-64
2023/05/01 11:14:00;;;;;;;2.40;1.90;;;;;;;18.85;62.71;100094.09;5072766;28;20469;-64
2023/05/01 11:16:38;;;;;;;2.60;2.00;;;;;;;18.85;62.70;100089.19;5054459;28;20420;-64
2023/05/01 11:19:19;;;;;;;2.50;1.97;;;;;;;18.86;62.71;100090.03;5074044;28;20427;-64
2023/05/01 11:21:44;;;;;;;2.40;1.80;;;;;;;18.85;62.88;100089.19;5072426;28;20413;-64
2023/05/01 11:24:10;;;;;;;2.53;1.87;;;;;;;18.86;63.10;100087.19;5071609;28;20432;-64